sensor_id;sensor_type;location;lat;lon;timestamp;P1;durP1;ratioP1;P2;durP2;ratioP2
46411;SDS011;32113;42.012;24.870;2022-08-04T00:01:52;6.85;;;3.20;;
46411;SDS011;32113;42.012;24.870;2022-08-04T00:04:52;4.65;;;3.00;;
46411;SDS011;32113;42.012;24.870;2022-08-04T00:10:04;4.80;;;3.47;;
46411;SDS011;32113;42.012;24.870;2022-08-04T00:12:32;4.72;;;2.92;;
46411;SDS011;32113;42.012;24.870;2022-08-04T00:15:01;4.20;;;3.22;;
46411;SDS011;32113;42.012;24.870;2022-08-04T00:17:39;4.30;;;3.00;;
46411;SDS011;32113;42.012;24.870;2022-08-04T00:20:08;3.22;;;2.70;;
46411;SDS011;32113;42.012;24.870;2022-08-04T00:22:37;4.00;;;3.00;;
46411;SDS011;32113;42.012;24.870;2022-08-04T00:27:30;5.47;;;3.10;;
46411;SDS011;32113;42.012;24.870;2022-08-04T00:29:57;3.70;;;2.90;;
46411;SDS011;32113;42.012;24.870;2022-08-04T00:32:24;3.83;;;3.40;;
46411;SDS011;32113;42.012;24.870;2022-08-04T00:34:51;4.72;;;3.33;;
46411;SDS011;32113;42.012;24.870;2022-08-04T00:37:22;5.35;;;2.97;;
46411;SDS011;32113;42.012;24.870;2022-08-04T00:39:50;5.40;;;3.47;;
46411;SDS011;32113;42.012;24.870;2022-08-04T00:51:14;5.70;;;3.33;;
46411;SDS011;32113;42.012;24.870;2022-08-04T00:54:19;3.50;;;3.05;;
46411;SDS011;32113;42.012;24.870;2022-08-04T00:57:20;4.38;;;3.13;;
46411;SDS011;32113;42.012;24.870;2022-08-04T01:00:09;5.85;;;3.47;;
46411;SDS011;32113;42.012;24.870;2022-08-04T01:10:48;3.33;;;2.80;;
46411;SDS011;32113;42.012;24.870;2022-08-04T01:16:17;5.20;;;3.03;;
46411;SDS011;32113;42.012;24.870;2022-08-04T01:18:59;3.42;;;3.10;;
46411;SDS011;32113;42.012;24.870;2022-08-04T01:27:05;3.28;;;2.90;;
46411;SDS011;32113;42.012;24.870;2022-08-04T01:30:08;3.75;;;3.13;;
46411;SDS011;32113;42.012;24.870;2022-08-04T01:32:30;3.25;;;2.90;;
46411;SDS011;32113;42.012;24.870;2022-08-04T01:35:03;5.35;;;3.42;;
46411;SDS011;32113;42.012;24.870;2022-08-04T01:37:43;4.78;;;3.28;;
46411;SDS011;32113;42.012;24.870;2022-08-04T01:40:12;4.70;;;3.58;;
46411;SDS011;32113;42.012;24.870;2022-08-04T01:42:40;4.50;;;3.67;;
46411;SDS011;32113;42.012;24.870;2022-08-04T01:45:10;4.30;;;3.53;;
46411;SDS011;32113;42.012;24.870;2022-08-04T01:47:37;4.35;;;3.78;;
46411;SDS011;32113;42.012;24.870;2022-08-04T01:50:10;3.90;;;3.55;;
46411;SDS011;32113;42.012;24.870;2022-08-04T01:52:38;4.13;;;3.50;;
46411;SDS011;32113;42.012;24.870;2022-08-04T01:55:09;3.47;;;3.17;;
46411;SDS011;32113;42.012;24.870;2022-08-04T01:57:46;4.38;;;3.15;;
46411;SDS011;32113;42.012;24.870;2022-08-04T02:00:20;5.00;;;3.70;;
46411;SDS011;32113;42.012;24.870;2022-08-04T02:02:48;3.67;;;3.33;;
46411;SDS011;32113;42.012;24.870;2022-08-04T02:05:15;5.27;;;3.50;;
46411;SDS011;32113;42.012;24.870;2022-08-04T02:08:08;4.68;;;3.50;;
46411;SDS011;32113;42.012;24.870;2022-08-04T02:21:24;7.60;;;3.45;;
46411;SDS011;32113;42.012;24.870;2022-08-04T02:23:52;4.07;;;3.38;;
46411;SDS011;32113;42.012;24.870;2022-08-04T02:26:20;4.85;;;3.58;;
46411;SDS011;32113;42.012;24.870;2022-08-04T02:29:08;5.90;;;3.53;;
46411;SDS011;32113;42.012;24.870;2022-08-04T02:31:42;4.40;;;3.63;;
46411;SDS011;32113;42.012;24.870;2022-08-04T02:36:58;3.92;;;3.40;;
46411;SDS011;32113;42.012;24.870;2022-08-04T02:39:24;3.97;;;3.58;;
46411;SDS011;32113;42.012;24.870;2022-08-04T02:41:54;5.70;;;3.60;;
46411;SDS011;32113;42.012;24.870;2022-08-04T02:44:21;4.50;;;3.60;;
46411;SDS011;32113;42.012;24.870;2022-08-04T02:46:50;6.57;;;3.00;;
46411;SDS011;32113;42.012;24.870;2022-08-04T02:49:16;3.80;;;3.20;;
46411;SDS011;32113;42.012;24.870;2022-08-04T02:51:46;4.25;;;3.22;;
46411;SDS011;32113;42.012;24.870;2022-08-04T02:54:24;4.15;;;3.45;;
46411;SDS011;32113;42.012;24.870;2022-08-04T02:56:52;5.35;;;3.70;;
46411;SDS011;32113;42.012;24.870;2022-08-04T02:59:22;4.07;;;3.60;;
46411;SDS011;32113;42.012;24.870;2022-08-04T03:01:52;5.10;;;3.30;;
46411;SDS011;32113;42.012;24.870;2022-08-04T03:13:01;6.32;;;4.03;;
46411;SDS011;32113;42.012;24.870;2022-08-04T03:23:38;4.82;;;3.55;;
46411;SDS011;32113;42.012;24.870;2022-08-04T03:34:56;5.10;;;3.80;;
46411;SDS011;32113;42.012;24.870;2022-08-04T03:43:23;4.75;;;3.35;;
46411;SDS011;32113;42.012;24.870;2022-08-04T04:00:13;7.15;;;3.45;;
46411;SDS011;32113;42.012;24.870;2022-08-04T04:02:54;6.72;;;3.50;;
46411;SDS011;32113;42.012;24.870;2022-08-04T04:16:06;3.88;;;3.30;;
46411;SDS011;32113;42.012;24.870;2022-08-04T04:30:18;5.38;;;3.95;;
46411;SDS011;32113;42.012;24.870;2022-08-04T04:50:19;3.97;;;3.50;;
46411;SDS011;32113;42.012;24.870;2022-08-04T04:55:39;5.72;;;3.33;;
46411;SDS011;32113;42.012;24.870;2022-08-04T04:58:07;4.40;;;3.70;;
46411;SDS011;32113;42.012;24.870;2022-08-04T05:12:04;6.82;;;3.50;;
46411;SDS011;32113;42.012;24.870;2022-08-04T05:14:47;6.15;;;3.63;;
46411;SDS011;32113;42.012;24.870;2022-08-04T05:17:16;4.20;;;3.35;;
46411;SDS011;32113;42.012;24.870;2022-08-04T05:24:45;6.15;;;3.33;;
46411;SDS011;32113;42.012;24.870;2022-08-04T05:29:50;5.70;;;3.42;;
46411;SDS011;32113;42.012;24.870;2022-08-04T05:32:19;8.30;;;3.25;;
46411;SDS011;32113;42.012;24.870;2022-08-04T05:34:54;6.80;;;3.67;;
46411;SDS011;32113;42.012;24.870;2022-08-04T05:37:30;10.95;;;4.07;;
46411;SDS011;32113;42.012;24.870;2022-08-04T05:39:59;7.93;;;3.40;;
46411;SDS011;32113;42.012;24.870;2022-08-04T05:42:29;4.05;;;3.63;;
46411;SDS011;32113;42.012;24.870;2022-08-04T05:44:57;7.55;;;3.90;;
46411;SDS011;32113;42.012;24.870;2022-08-04T05:47:24;6.88;;;3.47;;
46411;SDS011;32113;42.012;24.870;2022-08-04T05:49:52;8.25;;;3.72;;
46411;SDS011;32113;42.012;24.870;2022-08-04T05:52:20;11.13;;;4.18;;
46411;SDS011;32113;42.012;24.870;2022-08-04T05:54:46;7.22;;;3.33;;
46411;SDS011;32113;42.012;24.870;2022-08-04T05:57:13;6.17;;;3.73;;
46411;SDS011;32113;42.012;24.870;2022-08-04T05:59:40;6.30;;;3.60;;
46411;SDS011;32113;42.012;24.870;2022-08-04T06:02:10;4.15;;;3.35;;
46411;SDS011;32113;42.012;24.870;2022-08-04T06:04:39;6.35;;;4.45;;
46411;SDS011;32113;42.012;24.870;2022-08-04T06:07:06;6.68;;;3.90;;
46411;SDS011;32113;42.012;24.870;2022-08-04T06:09:32;4.68;;;3.60;;
46411;SDS011;32113;42.012;24.870;2022-08-04T06:12:02;5.40;;;3.17;;
46411;SDS011;32113;42.012;24.870;2022-08-04T06:14:52;5.47;;;4.00;;
46411;SDS011;32113;42.012;24.870;2022-08-04T06:17:22;4.07;;;3.05;;
46411;SDS011;32113;42.012;24.870;2022-08-04T06:19:52;9.32;;;3.63;;
46411;SDS011;32113;42.012;24.870;2022-08-04T06:22:20;6.70;;;3.10;;
46411;SDS011;32113;42.012;24.870;2022-08-04T06:24:47;5.75;;;3.90;;
46411;SDS011;32113;42.012;24.870;2022-08-04T06:27:16;7.65;;;3.83;;
46411;SDS011;32113;42.012;24.870;2022-08-04T06:29:43;4.07;;;3.40;;
46411;SDS011;32113;42.012;24.870;2022-08-04T06:32:09;4.70;;;3.22;;
46411;SDS011;32113;42.012;24.870;2022-08-04T06:34:59;5.78;;;3.55;;
46411;SDS011;32113;42.012;24.870;2022-08-04T06:37:26;5.40;;;4.03;;
46411;SDS011;32113;42.012;24.870;2022-08-04T06:39:52;7.43;;;3.80;;
46411;SDS011;32113;42.012;24.870;2022-08-04T06:42:20;10.23;;;3.80;;
46411;SDS011;32113;42.012;24.870;2022-08-04T06:44:50;7.55;;;3.75;;
46411;SDS011;32113;42.012;24.870;2022-08-04T06:47:19;7.45;;;4.00;;
46411;SDS011;32113;42.012;24.870;2022-08-04T06:49:47;15.98;;;4.85;;
46411;SDS011;32113;42.012;24.870;2022-08-04T06:52:15;11.90;;;4.70;;
46411;SDS011;32113;42.012;24.870;2022-08-04T06:55:00;15.88;;;5.70;;
46411;SDS011;32113;42.012;24.870;2022-08-04T06:57:30;16.40;;;5.53;;
46411;SDS011;32113;42.012;24.870;2022-08-04T06:59:58;16.67;;;5.38;;
46411;SDS011;32113;42.012;24.870;2022-08-04T07:02:26;11.13;;;5.38;;
46411;SDS011;32113;42.012;24.870;2022-08-04T07:04:54;9.82;;;5.35;;
46411;SDS011;32113;42.012;24.870;2022-08-04T07:07:22;15.93;;;5.70;;
46411;SDS011;32113;42.012;24.870;2022-08-04T07:09:49;12.15;;;5.22;;
46411;SDS011;32113;42.012;24.870;2022-08-04T07:12:14;10.90;;;4.65;;
46411;SDS011;32113;42.012;24.870;2022-08-04T07:14:44;9.63;;;4.88;;
46411;SDS011;32113;42.012;24.870;2022-08-04T07:17:12;8.10;;;5.32;;
46411;SDS011;32113;42.012;24.870;2022-08-04T07:19:39;14.10;;;5.50;;
46411;SDS011;32113;42.012;24.870;2022-08-04T07:22:06;10.70;;;5.30;;
46411;SDS011;32113;42.012;24.870;2022-08-04T07:24:34;12.60;;;5.05;;
46411;SDS011;32113;42.012;24.870;2022-08-04T07:27:01;11.82;;;5.75;;
46411;SDS011;32113;42.012;24.870;2022-08-04T07:31:54;13.07;;;5.47;;
46411;SDS011;32113;42.012;24.870;2022-08-04T07:34:21;11.18;;;4.78;;
46411;SDS011;32113;42.012;24.870;2022-08-04T07:36:48;11.13;;;4.83;;
46411;SDS011;32113;42.012;24.870;2022-08-04T07:41:40;14.88;;;4.75;;
46411;SDS011;32113;42.012;24.870;2022-08-04T07:44:07;11.50;;;4.82;;
46411;SDS011;32113;42.012;24.870;2022-08-04T07:46:36;11.55;;;4.25;;
46411;SDS011;32113;42.012;24.870;2022-08-04T07:49:03;11.65;;;4.47;;
46411;SDS011;32113;42.012;24.870;2022-08-04T07:51:29;8.40;;;5.00;;
46411;SDS011;32113;42.012;24.870;2022-08-04T07:53:56;11.43;;;4.63;;
46411;SDS011;32113;42.012;24.870;2022-08-04T07:56:21;7.00;;;3.65;;
46411;SDS011;32113;42.012;24.870;2022-08-04T07:58:47;8.82;;;4.07;;
46411;SDS011;32113;42.012;24.870;2022-08-04T08:01:12;10.85;;;4.00;;
46411;SDS011;32113;42.012;24.870;2022-08-04T08:03:38;11.75;;;4.57;;
46411;SDS011;32113;42.012;24.870;2022-08-04T08:06:05;7.87;;;3.90;;
46411;SDS011;32113;42.012;24.870;2022-08-04T08:08:30;17.25;;;4.18;;
46411;SDS011;32113;42.012;24.870;2022-08-04T08:10:56;6.28;;;3.88;;
46411;SDS011;32113;42.012;24.870;2022-08-04T08:13:22;6.13;;;3.88;;
46411;SDS011;32113;42.012;24.870;2022-08-04T08:15:49;7.65;;;3.90;;
46411;SDS011;32113;42.012;24.870;2022-08-04T08:18:14;13.02;;;4.45;;
46411;SDS011;32113;42.012;24.870;2022-08-04T08:20:43;7.05;;;4.10;;
46411;SDS011;32113;42.012;24.870;2022-08-04T08:23:09;4.25;;;3.50;;
46411;SDS011;32113;42.012;24.870;2022-08-04T08:25:35;8.15;;;3.50;;
46411;SDS011;32113;42.012;24.870;2022-08-04T08:28:01;7.38;;;3.22;;
46411;SDS011;32113;42.012;24.870;2022-08-04T08:30:28;10.23;;;3.40;;
46411;SDS011;32113;42.012;24.870;2022-08-04T08:32:53;6.72;;;3.40;;
46411;SDS011;32113;42.012;24.870;2022-08-04T08:35:19;8.90;;;3.55;;
46411;SDS011;32113;42.012;24.870;2022-08-04T08:37:51;9.93;;;3.50;;
46411;SDS011;32113;42.012;24.870;2022-08-04T08:40:29;6.57;;;3.22;;
46411;SDS011;32113;42.012;24.870;2022-08-04T08:46:07;8.02;;;3.05;;
46411;SDS011;32113;42.012;24.870;2022-08-04T09:11:43;8.77;;;3.42;;
46411;SDS011;32113;42.012;24.870;2022-08-04T09:13:51;16.83;;;3.33;;
46411;SDS011;32113;42.012;24.870;2022-08-04T09:16:37;6.05;;;2.70;;
46411;SDS011;32113;42.012;24.870;2022-08-04T09:19:11;6.68;;;3.05;;
46411;SDS011;32113;42.012;24.870;2022-08-04T09:21:46;3.90;;;2.67;;
46411;SDS011;32113;42.012;24.870;2022-08-04T09:25:19;4.55;;;2.58;;
46411;SDS011;32113;42.012;24.870;2022-08-04T09:30:19;6.38;;;3.17;;
46411;SDS011;32113;42.012;24.870;2022-08-04T09:35:32;5.38;;;3.30;;
46411;SDS011;32113;42.012;24.870;2022-08-04T09:38:22;5.88;;;4.15;;
46411;SDS011;32113;42.012;24.870;2022-08-04T09:52:40;3.38;;;2.35;;
46411;SDS011;32113;42.012;24.870;2022-08-04T09:55:17;4.22;;;2.05;;
46411;SDS011;32113;42.012;24.870;2022-08-04T10:00:41;3.05;;;1.70;;
46411;SDS011;32113;42.012;24.870;2022-08-04T10:03:11;3.92;;;1.80;;
46411;SDS011;32113;42.012;24.870;2022-08-04T10:08:28;3.08;;;1.90;;
46411;SDS011;32113;42.012;24.870;2022-08-04T10:11:15;4.65;;;1.80;;
46411;SDS011;32113;42.012;24.870;2022-08-04T10:13:56;8.25;;;2.40;;
46411;SDS011;32113;42.012;24.870;2022-08-04T10:16:45;9.63;;;2.20;;
46411;SDS011;32113;42.012;24.870;2022-08-04T10:19:28;9.90;;;2.20;;
46411;SDS011;32113;42.012;24.870;2022-08-04T10:22:02;3.95;;;2.05;;
46411;SDS011;32113;42.012;24.870;2022-08-04T10:29:45;4.03;;;2.00;;
46411;SDS011;32113;42.012;24.870;2022-08-04T10:40:19;5.15;;;2.83;;
46411;SDS011;32113;42.012;24.870;2022-08-04T10:43:10;6.68;;;2.10;;
46411;SDS011;32113;42.012;24.870;2022-08-04T10:45:49;3.67;;;2.05;;
46411;SDS011;32113;42.012;24.870;2022-08-04T10:48:34;6.53;;;2.17;;
46411;SDS011;32113;42.012;24.870;2022-08-04T10:51:08;3.85;;;2.30;;
46411;SDS011;32113;42.012;24.870;2022-08-04T10:53:36;3.40;;;2.00;;
46411;SDS011;32113;42.012;24.870;2022-08-04T10:56:05;2.88;;;2.05;;
46411;SDS011;32113;42.012;24.870;2022-08-04T10:58:55;3.28;;;1.80;;
46411;SDS011;32113;42.012;24.870;2022-08-04T11:01:26;3.75;;;2.00;;
46411;SDS011;32113;42.012;24.870;2022-08-04T11:04:00;5.90;;;1.98;;
46411;SDS011;32113;42.012;24.870;2022-08-04T11:06:33;13.53;;;2.40;;
46411;SDS011;32113;42.012;24.870;2022-08-04T11:09:00;4.10;;;1.90;;
46411;SDS011;32113;42.012;24.870;2022-08-04T11:16:32;3.03;;;2.00;;
46411;SDS011;32113;42.012;24.870;2022-08-04T11:21:57;4.72;;;2.08;;
46411;SDS011;32113;42.012;24.870;2022-08-04T11:30:15;6.97;;;2.10;;
46411;SDS011;32113;42.012;24.870;2022-08-04T11:35:33;6.68;;;2.00;;
46411;SDS011;32113;42.012;24.870;2022-08-04T11:38:26;3.88;;;2.33;;
46411;SDS011;32113;42.012;24.870;2022-08-04T11:41:12;3.20;;;1.83;;
46411;SDS011;32113;42.012;24.870;2022-08-04T11:44:15;6.30;;;2.08;;
46411;SDS011;32113;42.012;24.870;2022-08-04T11:46:47;3.90;;;1.90;;
46411;SDS011;32113;42.012;24.870;2022-08-04T11:51:54;3.75;;;2.00;;
46411;SDS011;32113;42.012;24.870;2022-08-04T11:54:22;3.78;;;2.17;;
46411;SDS011;32113;42.012;24.870;2022-08-04T11:56:48;4.50;;;2.03;;
46411;SDS011;32113;42.012;24.870;2022-08-04T11:59:14;5.93;;;1.70;;
46411;SDS011;32113;42.012;24.870;2022-08-04T12:15:22;4.70;;;2.80;;
46411;SDS011;32113;42.012;24.870;2022-08-04T12:20:24;5.47;;;1.70;;
46411;SDS011;32113;42.012;24.870;2022-08-04T12:22:53;3.28;;;1.98;;
46411;SDS011;32113;42.012;24.870;2022-08-04T12:28:11;3.47;;;1.63;;
46411;SDS011;32113;42.012;24.870;2022-08-04T12:30:55;6.20;;;1.80;;
46411;SDS011;32113;42.012;24.870;2022-08-04T12:33:32;3.13;;;2.20;;
46411;SDS011;32113;42.012;24.870;2022-08-04T12:36:21;3.08;;;1.60;;
46411;SDS011;32113;42.012;24.870;2022-08-04T12:39:15;5.40;;;2.70;;
46411;SDS011;32113;42.012;24.870;2022-08-04T12:44:36;3.03;;;2.08;;
46411;SDS011;32113;42.012;24.870;2022-08-04T12:47:03;3.50;;;2.10;;
46411;SDS011;32113;42.012;24.870;2022-08-04T12:49:33;4.40;;;1.98;;
46411;SDS011;32113;42.012;24.870;2022-08-04T12:51:59;5.82;;;2.38;;
46411;SDS011;32113;42.012;24.870;2022-08-04T12:54:30;3.90;;;2.20;;
46411;SDS011;32113;42.012;24.870;2022-08-04T12:56:57;2.95;;;2.08;;
46411;SDS011;32113;42.012;24.870;2022-08-04T12:59:25;6.22;;;1.80;;
46411;SDS011;32113;42.012;24.870;2022-08-04T13:01:50;2.73;;;1.87;;
46411;SDS011;32113;42.012;24.870;2022-08-04T13:04:18;4.82;;;1.95;;
46411;SDS011;32113;42.012;24.870;2022-08-04T13:06:53;2.85;;;1.95;;
46411;SDS011;32113;42.012;24.870;2022-08-04T13:09:27;2.13;;;1.70;;
46411;SDS011;32113;42.012;24.870;2022-08-04T13:11:56;2.85;;;1.75;;
46411;SDS011;32113;42.012;24.870;2022-08-04T13:14:32;9.15;;;2.63;;
46411;SDS011;32113;42.012;24.870;2022-08-04T13:17:01;3.92;;;1.90;;
46411;SDS011;32113;42.012;24.870;2022-08-04T13:19:28;3.55;;;1.70;;
46411;SDS011;32113;42.012;24.870;2022-08-04T13:24:21;3.03;;;2.13;;
46411;SDS011;32113;42.012;24.870;2022-08-04T13:26:58;3.85;;;2.05;;
46411;SDS011;32113;42.012;24.870;2022-08-04T13:29:31;2.50;;;1.88;;
46411;SDS011;32113;42.012;24.870;2022-08-04T13:32:00;7.35;;;2.00;;
46411;SDS011;32113;42.012;24.870;2022-08-04T13:34:28;3.55;;;1.75;;
46411;SDS011;32113;42.012;24.870;2022-08-04T13:36:56;4.90;;;2.22;;
46411;SDS011;32113;42.012;24.870;2022-08-04T13:39:22;4.40;;;1.80;;
46411;SDS011;32113;42.012;24.870;2022-08-04T13:41:50;3.58;;;2.00;;
46411;SDS011;32113;42.012;24.870;2022-08-04T13:44:19;4.00;;;1.70;;
46411;SDS011;32113;42.012;24.870;2022-08-04T13:46:55;4.50;;;2.00;;
46411;SDS011;32113;42.012;24.870;2022-08-04T13:49:23;4.05;;;2.10;;
46411;SDS011;32113;42.012;24.870;2022-08-04T13:51:58;3.80;;;1.73;;
46411;SDS011;32113;42.012;24.870;2022-08-04T13:54:26;6.22;;;2.00;;
46411;SDS011;32113;42.012;24.870;2022-08-04T13:57:18;4.53;;;2.00;;
46411;SDS011;32113;42.012;24.870;2022-08-04T13:59:52;4.25;;;2.03;;
46411;SDS011;32113;42.012;24.870;2022-08-04T14:05:26;6.30;;;2.10;;
46411;SDS011;32113;42.012;24.870;2022-08-04T14:08:00;4.10;;;2.25;;
46411;SDS011;32113;42.012;24.870;2022-08-04T14:10:36;5.30;;;2.05;;
46411;SDS011;32113;42.012;24.870;2022-08-04T14:13:02;3.60;;;3.07;;
46411;SDS011;32113;42.012;24.870;2022-08-04T14:23:36;4.93;;;2.33;;
46411;SDS011;32113;42.012;24.870;2022-08-04T14:29:11;3.63;;;1.88;;
46411;SDS011;32113;42.012;24.870;2022-08-04T14:31:38;4.05;;;2.30;;
46411;SDS011;32113;42.012;24.870;2022-08-04T14:34:04;2.40;;;1.45;;
46411;SDS011;32113;42.012;24.870;2022-08-04T14:36:39;3.27;;;1.83;;
46411;SDS011;32113;42.012;24.870;2022-08-04T14:39:06;5.65;;;2.00;;
46411;SDS011;32113;42.012;24.870;2022-08-04T14:41:46;4.57;;;2.03;;
46411;SDS011;32113;42.012;24.870;2022-08-04T14:44:13;5.15;;;2.13;;
46411;SDS011;32113;42.012;24.870;2022-08-04T14:46:49;3.10;;;1.73;;
46411;SDS011;32113;42.012;24.870;2022-08-04T14:49:15;3.25;;;1.90;;
46411;SDS011;32113;42.012;24.870;2022-08-04T14:51:42;3.27;;;1.83;;
46411;SDS011;32113;42.012;24.870;2022-08-04T14:54:16;2.40;;;1.80;;
46411;SDS011;32113;42.012;24.870;2022-08-04T14:56:52;3.30;;;1.85;;
46411;SDS011;32113;42.012;24.870;2022-08-04T14:59:20;3.03;;;2.00;;
46411;SDS011;32113;42.012;24.870;2022-08-04T15:01:46;3.95;;;1.80;;
46411;SDS011;32113;42.012;24.870;2022-08-04T15:04:13;3.35;;;1.63;;
46411;SDS011;32113;42.012;24.870;2022-08-04T15:06:39;4.20;;;2.10;;
46411;SDS011;32113;42.012;24.870;2022-08-04T15:09:07;9.40;;;1.80;;
46411;SDS011;32113;42.012;24.870;2022-08-04T15:11:34;2.05;;;1.60;;
46411;SDS011;32113;42.012;24.870;2022-08-04T15:16:28;4.65;;;2.10;;
46411;SDS011;32113;42.012;24.870;2022-08-04T15:18:54;8.45;;;2.08;;
46411;SDS011;32113;42.012;24.870;2022-08-04T15:23:47;4.60;;;2.83;;
46411;SDS011;32113;42.012;24.870;2022-08-04T15:26:15;5.65;;;2.03;;
46411;SDS011;32113;42.012;24.870;2022-08-04T15:28:47;4.43;;;1.70;;
46411;SDS011;32113;42.012;24.870;2022-08-04T15:31:17;6.10;;;2.28;;
46411;SDS011;32113;42.012;24.870;2022-08-04T15:33:44;6.03;;;2.17;;
46411;SDS011;32113;42.012;24.870;2022-08-04T15:38:52;3.67;;;2.13;;
46411;SDS011;32113;42.012;24.870;2022-08-04T15:41:57;2.28;;;1.40;;
46411;SDS011;32113;42.012;24.870;2022-08-04T15:47:28;4.07;;;1.77;;
46411;SDS011;32113;42.012;24.870;2022-08-04T15:50:04;3.17;;;1.70;;
46411;SDS011;32113;42.012;24.870;2022-08-04T15:58:06;3.65;;;2.00;;
46411;SDS011;32113;42.012;24.870;2022-08-04T16:05:54;3.95;;;2.13;;
46411;SDS011;32113;42.012;24.870;2022-08-04T16:08:20;2.50;;;1.80;;
46411;SDS011;32113;42.012;24.870;2022-08-04T16:10:46;3.30;;;2.20;;
46411;SDS011;32113;42.012;24.870;2022-08-04T16:20:50;2.57;;;1.70;;
46411;SDS011;32113;42.012;24.870;2022-08-04T16:26:17;4.72;;;2.17;;
46411;SDS011;32113;42.012;24.870;2022-08-04T16:29:27;6.78;;;2.00;;
46411;SDS011;32113;42.012;24.870;2022-08-04T16:37:42;5.22;;;2.53;;
46411;SDS011;32113;42.012;24.870;2022-08-04T16:42:52;10.07;;;2.65;;
46411;SDS011;32113;42.012;24.870;2022-08-04T16:45:41;3.97;;;2.58;;
46411;SDS011;32113;42.012;24.870;2022-08-04T16:48:07;8.80;;;2.90;;
46411;SDS011;32113;42.012;24.870;2022-08-04T16:50:44;6.18;;;3.17;;
46411;SDS011;32113;42.012;24.870;2022-08-04T16:53:12;10.70;;;6.78;;
46411;SDS011;32113;42.012;24.870;2022-08-04T16:55:39;8.38;;;5.28;;
46411;SDS011;32113;42.012;24.870;2022-08-04T16:58:10;5.82;;;2.90;;
46411;SDS011;32113;42.012;24.870;2022-08-04T17:00:36;4.05;;;2.65;;
46411;SDS011;32113;42.012;24.870;2022-08-04T17:05:32;7.18;;;2.63;;
46411;SDS011;32113;42.012;24.870;2022-08-04T17:07:59;6.80;;;2.83;;
46411;SDS011;32113;42.012;24.870;2022-08-04T17:10:46;5.05;;;2.75;;
46411;SDS011;32113;42.012;24.870;2022-08-04T17:13:23;4.63;;;2.75;;
46411;SDS011;32113;42.012;24.870;2022-08-04T17:15:55;6.20;;;2.60;;
46411;SDS011;32113;42.012;24.870;2022-08-04T17:18:25;8.20;;;2.78;;
46411;SDS011;32113;42.012;24.870;2022-08-04T17:20:53;4.95;;;2.40;;
46411;SDS011;32113;42.012;24.870;2022-08-04T17:23:31;3.80;;;2.72;;
46411;SDS011;32113;42.012;24.870;2022-08-04T17:26:00;4.80;;;2.60;;
46411;SDS011;32113;42.012;24.870;2022-08-04T17:28:30;2.90;;;2.25;;
46411;SDS011;32113;42.012;24.870;2022-08-04T17:30:58;4.10;;;2.55;;
46411;SDS011;32113;42.012;24.870;2022-08-04T17:33:25;3.70;;;2.50;;
46411;SDS011;32113;42.012;24.870;2022-08-04T17:35:52;4.85;;;3.22;;
46411;SDS011;32113;42.012;24.870;2022-08-04T17:38:21;3.58;;;2.55;;
46411;SDS011;32113;42.012;24.870;2022-08-04T17:44:05;4.85;;;3.10;;
46411;SDS011;32113;42.012;24.870;2022-08-04T17:46:20;6.03;;;3.40;;
46411;SDS011;32113;42.012;24.870;2022-08-04T17:48:55;6.70;;;3.00;;
46411;SDS011;32113;42.012;24.870;2022-08-04T17:51:29;3.55;;;2.28;;
46411;SDS011;32113;42.012;24.870;2022-08-04T17:53:58;5.78;;;2.50;;
46411;SDS011;32113;42.012;24.870;2022-08-04T17:56:34;6.72;;;2.33;;
46411;SDS011;32113;42.012;24.870;2022-08-04T18:07:13;4.47;;;2.53;;
46411;SDS011;32113;42.012;24.870;2022-08-04T18:12:26;3.35;;;2.45;;
46411;SDS011;32113;42.012;24.870;2022-08-04T18:14:57;4.25;;;3.00;;
46411;SDS011;32113;42.012;24.870;2022-08-04T18:17:32;6.38;;;2.80;;
46411;SDS011;32113;42.012;24.870;2022-08-04T18:19:57;3.10;;;2.15;;
46411;SDS011;32113;42.012;24.870;2022-08-04T18:22:23;5.35;;;2.60;;
46411;SDS011;32113;42.012;24.870;2022-08-04T18:24:49;5.03;;;2.55;;
46411;SDS011;32113;42.012;24.870;2022-08-04T18:27:15;2.75;;;2.35;;
46411;SDS011;32113;42.012;24.870;2022-08-04T18:29:42;3.85;;;2.38;;
46411;SDS011;32113;42.012;24.870;2022-08-04T18:32:07;7.55;;;2.33;;
46411;SDS011;32113;42.012;24.870;2022-08-04T18:34:34;3.42;;;2.30;;
46411;SDS011;32113;42.012;24.870;2022-08-04T18:37:00;3.00;;;2.40;;
46411;SDS011;32113;42.012;24.870;2022-08-04T18:39:25;2.97;;;2.55;;
46411;SDS011;32113;42.012;24.870;2022-08-04T18:41:53;4.13;;;2.38;;
46411;SDS011;32113;42.012;24.870;2022-08-04T18:44:19;5.05;;;2.50;;
46411;SDS011;32113;42.012;24.870;2022-08-04T18:46:45;4.72;;;2.35;;
46411;SDS011;32113;42.012;24.870;2022-08-04T18:49:11;3.35;;;2.53;;
46411;SDS011;32113;42.012;24.870;2022-08-04T18:51:37;4.20;;;2.10;;
46411;SDS011;32113;42.012;24.870;2022-08-04T18:54:03;3.30;;;2.30;;
46411;SDS011;32113;42.012;24.870;2022-08-04T18:56:29;3.17;;;2.28;;
46411;SDS011;32113;42.012;24.870;2022-08-04T18:58:55;6.63;;;2.40;;
46411;SDS011;32113;42.012;24.870;2022-08-04T19:01:21;3.13;;;2.60;;
46411;SDS011;32113;42.012;24.870;2022-08-04T19:03:46;2.88;;;2.10;;
46411;SDS011;32113;42.012;24.870;2022-08-04T19:06:11;5.68;;;2.28;;
46411;SDS011;32113;42.012;24.870;2022-08-04T19:08:38;5.07;;;2.47;;
46411;SDS011;32113;42.012;24.870;2022-08-04T19:11:03;3.20;;;2.60;;
46411;SDS011;32113;42.012;24.870;2022-08-04T19:13:30;5.93;;;2.80;;
46411;SDS011;32113;42.012;24.870;2022-08-04T19:15:56;3.55;;;2.28;;
46411;SDS011;32113;42.012;24.870;2022-08-04T19:18:22;5.73;;;3.10;;
46411;SDS011;32113;42.012;24.870;2022-08-04T19:20:48;4.80;;;2.70;;
46411;SDS011;32113;42.012;24.870;2022-08-04T19:23:14;4.40;;;2.58;;
46411;SDS011;32113;42.012;24.870;2022-08-04T19:25:40;3.38;;;2.28;;
46411;SDS011;32113;42.012;24.870;2022-08-04T19:28:06;3.13;;;2.15;;
46411;SDS011;32113;42.012;24.870;2022-08-04T19:30:31;4.05;;;2.50;;
46411;SDS011;32113;42.012;24.870;2022-08-04T19:32:57;5.22;;;2.50;;
46411;SDS011;32113;42.012;24.870;2022-08-04T19:35:22;4.97;;;2.30;;
46411;SDS011;32113;42.012;24.870;2022-08-04T19:37:48;4.10;;;2.75;;
46411;SDS011;32113;42.012;24.870;2022-08-04T19:40:13;3.92;;;2.72;;
46411;SDS011;32113;42.012;24.870;2022-08-04T19:42:39;4.70;;;2.58;;
46411;SDS011;32113;42.012;24.870;2022-08-04T19:45:06;2.97;;;2.35;;
46411;SDS011;32113;42.012;24.870;2022-08-04T19:47:32;3.88;;;2.55;;
46411;SDS011;32113;42.012;24.870;2022-08-04T19:49:58;6.03;;;2.35;;
46411;SDS011;32113;42.012;24.870;2022-08-04T19:52:23;3.55;;;2.40;;
46411;SDS011;32113;42.012;24.870;2022-08-04T19:54:48;2.80;;;2.20;;
46411;SDS011;32113;42.012;24.870;2022-08-04T19:57:14;3.13;;;2.03;;
46411;SDS011;32113;42.012;24.870;2022-08-04T19:59:39;5.85;;;2.80;;
46411;SDS011;32113;42.012;24.870;2022-08-04T20:02:04;3.67;;;2.42;;
46411;SDS011;32113;42.012;24.870;2022-08-04T20:04:30;6.53;;;2.40;;
46411;SDS011;32113;42.012;24.870;2022-08-04T20:06:55;4.93;;;2.70;;
46411;SDS011;32113;42.012;24.870;2022-08-04T20:09:21;3.35;;;2.50;;
46411;SDS011;32113;42.012;24.870;2022-08-04T20:11:48;3.63;;;2.40;;
46411;SDS011;32113;42.012;24.870;2022-08-04T20:14:13;6.68;;;2.83;;
46411;SDS011;32113;42.012;24.870;2022-08-04T20:16:39;3.50;;;2.67;;
46411;SDS011;32113;42.012;24.870;2022-08-04T20:19:04;5.90;;;2.42;;
46411;SDS011;32113;42.012;24.870;2022-08-04T20:21:30;5.18;;;2.25;;
46411;SDS011;32113;42.012;24.870;2022-08-04T20:23:57;5.97;;;2.72;;
46411;SDS011;32113;42.012;24.870;2022-08-04T20:26:23;4.47;;;2.90;;
46411;SDS011;32113;42.012;24.870;2022-08-04T20:28:48;3.65;;;2.17;;